Time;durP1;ratioP1;P1;durP2;ratioP2;P2;SDS_P1;SDS_P2;PMS_P1;PMS_P2;Temp;Humidity;BMP_temperature;BMP_pressure;BME280_temperature;BME280_humidity;BME280_pressure;Samples;Min_cycle;Max_cycle;Signal;HPM_P1;HPM_P2
2023/07/14 00:00:39;;;;;;;0.30;0.30;;;15.20;99.90;;;;;;5012456;28;20242;-72
2023/07/14 00:03:05;;;;;;;0.10;0.10;;;15.10;99.90;;;;;;5016092;28;20463;-72
2023/07/14 00:05:35;;;;;;;0.17;0.17;;;15.20;99.90;;;;;;5031965;28;20191;-74
2023/07/14 00:08:03;;;;;;;0.10;0.10;;;15.20;99.90;;;;;;5031612;28;20186;-72
2023/07/14 00:10:34;;;;;;;0.45;0.45;;;15.20;99.90;;;;;;5030619;28;20190;-72
2023/07/14 00:13:07;;;;;;;0.10;0.10;;;15.10;99.90;;;;;;5031582;28;20202;-72
2023/07/14 00:15:35;;;;;;;0.10;0.10;;;15.10;99.90;;;;;;5031225;28;20354;-73
2023/07/14 00:18:19;;;;;;;0.20;0.20;;;15.20;99.90;;;;;;5031348;28;20562;-72
2023/07/14 00:20:44;;;;;;;0.10;0.10;;;15.20;99.90;;;;;;5029788;28;20261;-73
2023/07/14 00:23:11;;;;;;;0.25;0.17;;;15.10;99.90;;;;;;5031144;28;20614;-73
2023/07/14 00:25:37;;;;;;;0.20;0.20;;;15.20;99.90;;;;;;5031095;28;20704;-73
2023/07/14 00:28:16;;;;;;;0.45;0.45;;;15.20;99.90;;;;;;5031028;28;20649;-73
2023/07/14 00:30:43;;;;;;;8.88;0.55;;;15.20;99.90;;;;;;5031083;28;20718;-72
2023/07/14 00:33:17;;;;;;;0.22;0.22;;;15.20;99.90;;;;;;5030882;28;20295;-72
2023/07/14 00:35:43;;;;;;;0.30;0.25;;;15.20;99.90;;;;;;5031134;28;20194;-72
2023/07/14 00:38:09;;;;;;;0.25;0.25;;;15.10;99.90;;;;;;5046293;28;20205;-72
2023/07/14 00:40:47;;;;;;;0.10;0.10;;;15.10;99.90;;;;;;5050685;28;20626;-72
2023/07/14 00:43:19;;;;;;;0.25;0.25;;;15.00;99.90;;;;;;5050860;28;20208;-73
2023/07/14 00:45:49;;;;;;;0.15;0.15;;;15.00;99.90;;;;;;5037120;28;20235;-75
2023/07/14 00:48:18;;;;;;;0.10;0.10;;;15.00;99.90;;;;;;5013056;28;20562;-72
2023/07/14 00:50:46;;;;;;;0.32;0.32;;;15.00;99.90;;;;;;5030352;28;20201;-71
2023/07/14 00:53:20;;;;;;;0.10;0.10;;;14.90;99.90;;;;;;5013163;28;20221;-71
2023/07/14 00:55:52;;;;;;;0.32;0.32;;;14.90;99.90;;;;;;5030904;28;20281;-71
2023/07/14 00:58:23;;;;;;;4.53;0.80;;;14.90;99.90;;;;;;5030392;28;20602;-72
2023/07/14 01:01:24;;;;;;;4.32;1.27;;;15.00;99.90;;;;;;5013556;28;20265;-72
2023/07/14 01:03:55;;;;;;;0.45;0.45;;;14.90;99.90;;;;;;5041102;22;20226;-65
2023/07/14 01:06:38;;;;;;;0.15;0.15;;;14.90;99.90;;;;;;5014293;28;20531;-65
2023/07/14 01:09:53;;;;;;;0.30;0.30;;;14.80;99.90;;;;;;4997593;28;20662;-68
2023/07/14 01:15:58;;;;;;;0.10;0.10;;;14.80;99.90;;;;;;4978011;28;20756;-64
2023/07/14 01:18:58;;;;;;;0.30;0.15;;;14.70;99.90;;;;;;5011525;28;20214;-67
2023/07/14 01:21:54;;;;;;;3.65;1.65;;;14.70;99.90;;;;;;4905090;29;20237;-67
2023/07/14 01:24:50;;;;;;;0.08;0.08;;;14.80;99.90;;;;;;4906254;29;20658;-67
2023/07/14 01:27:31;;;;;;;0.10;0.10;;;14.60;99.90;;;;;;4905871;29;20678;-68
2023/07/14 01:30:08;;;;;;;0.10;0.10;;;14.50;99.90;;;;;;4921041;29;20611;-67
2023/07/14 01:32:50;;;;;;;0.35;0.35;;;14.40;99.90;;;;;;4904427;29;20214;-67
2023/07/14 01:35:20;;;;;;;0.68;0.63;;;14.40;99.90;;;;;;4902622;29;20212;-65
2023/07/14 01:38:04;;;;;;;0.63;0.38;;;14.30;99.90;;;;;;4931275;29;20210;-65
2023/07/14 01:40:33;;;;;;;0.85;0.40;;;14.40;99.90;;;;;;4937946;29;20225;-67
2023/07/14 01:43:03;;;;;;;0.28;0.28;;;14.40;99.90;;;;;;4916874;29;20206;-69
2023/07/14 01:46:42;;;;;;;;;;;;;;;;;;;;;
2023/07/14 01:52:37;;;;;;;0.10;0.10;;;14.60;99.90;;;;;;4902529;29;20238;-68
2023/07/14 01:55:18;;;;;;;0.35;0.35;;;14.60;99.90;;;;;;4915747;29;20206;-68
2023/07/14 01:58:19;;;;;;;0.30;0.25;;;14.70;99.90;;;;;;4931657;29;20205;-65
2023/07/14 02:01:23;;;;;;;0.25;0.25;;;14.50;99.90;;;;;;4928542;29;20199;-66
2023/07/14 02:03:53;;;;;;;3.55;0.73;;;14.40;99.90;;;;;;4936655;29;20251;-64
2023/07/14 02:06:49;;;;;;;;;;;;;;;;;;;;;
2023/07/14 02:09:54;;;;;;;0.10;0.10;;;14.30;99.90;;;;;;4957992;29;20292;-65
2023/07/14 02:12:57;;;;;;;1.92;0.90;;;14.20;99.90;;;;;;4957231;29;20220;-66
2023/07/14 02:16:04;;;;;;;0.20;0.20;;;14.20;99.90;;;;;;4918668;29;20210;-66
2023/07/14 02:22:07;;;;;;;0.20;0.20;;;14.30;99.90;;;;;;4948218;28;20676;-66
2023/07/14 02:24:35;;;;;;;0.20;0.20;;;14.20;99.90;;;;;;4988787;28;20728;-66
2023/07/14 02:27:22;;;;;;;0.30;0.30;;;14.30;99.90;;;;;;5000219;28;20199;-66
2023/07/14 02:30:13;;;;;;;0.30;0.30;;;14.30;99.90;;;;;;5001315;28;20203;-68
2023/07/14 02:32:54;;;;;;;0.45;0.45;;;14.30;99.90;;;;;;4999483;28;20768;-70
2023/07/14 02:36:22;;;;;;;;;;;;;;;;;;;;;
2023/07/14 02:42:23;;;;;;;0.32;0.32;;;14.00;99.90;;;;;;4949743;29;20388;-69
2023/07/14 02:45:00;;;;;;;0.50;0.50;;;14.10;99.90;;;;;;5017191;28;20211;-69
2023/07/14 02:54:40;;;;;;;;;;;;;;;;;;;;;
2023/07/14 02:57:14;;;;;;;0.47;0.47;;;14.50;99.90;;;;;;4900595;29;20630;-65
2023/07/14 03:00:00;;;;;;;0.40;0.40;;;14.60;99.90;;;;;;4948752;29;20217;-64
2023/07/14 03:02:58;;;;;;;0.30;0.30;;;14.60;99.90;;;;;;4949447;28;20252;-65
2023/07/14 03:05:38;;;;;;;0.47;0.47;;;14.60;99.90;;;;;;4956222;29;20228;-68
2023/07/14 03:11:18;;;;;;;0.50;0.50;;;14.60;99.90;;;;;;4946038;29;20204;-66
2023/07/14 03:14:10;;;;;;;0.30;0.30;;;14.70;99.90;;;;;;4957686;29;20333;-67
2023/07/14 03:17:18;;;;;;;0.30;0.30;;;14.70;99.90;;;;;;4950765;29;20208;-67
2023/07/14 03:20:26;;;;;;;0.30;0.30;;;14.80;99.90;;;;;;4953665;29;20212;-68
2023/07/14 03:22:56;;;;;;;0.50;0.50;;;14.90;99.90;;;;;;4955680;29;20212;-68
2023/07/14 03:26:16;;;;;;;1.17;0.85;;;14.90;99.90;;;;;;4955715;29;20284;-68
2023/07/14 03:29:04;;;;;;;0.30;0.30;;;15.00;99.90;;;;;;4972893;28;20211;-67
2023/07/14 03:31:30;;;;;;;0.50;0.50;;;15.10;99.90;;;;;;4993892;28;20210;-68
2023/07/14 03:34:09;;;;;;;0.40;0.40;;;15.20;99.90;;;;;;4997535;28;20196;-70
2023/07/14 03:37:04;;;;;;;0.40;0.40;;;15.30;99.90;;;;;;5015481;28;20211;-69
2023/07/14 03:40:10;;;;;;;0.70;0.70;;;15.30;99.90;;;;;;5017074;28;20289;-69
2023/07/14 03:43:17;;;;;;;0.22;0.22;;;15.40;99.90;;;;;;4998623;28;20223;-68
2023/07/14 03:46:44;;;;;;;0.22;0.22;;;15.40;99.90;;;;;;4968186;28;20212;-68
2023/07/14 03:49:38;;;;;;;0.40;0.40;;;15.50;99.90;;;;;;4938353;28;20211;-65
2023/07/14 03:52:46;;;;;;;0.38;0.38;;;15.70;99.90;;;;;;4975510;28;20206;-67
2023/07/14 03:55:37;;;;;;;5.20;1.05;;;15.80;99.90;;;;;;4950079;28;20338;-68
2023/07/14 03:58:22;;;;;;;0.43;0.43;;;16.00;99.90;;;;;;4975968;28;20714;-69
2023/07/14 04:01:14;;;;;;;0.30;0.30;;;16.10;99.90;;;;;;4960083;28;20208;-70
2023/07/14 04:04:13;;;;;;;0.52;0.45;;;16.20;99.90;;;;;;4959773;28;20216;-66
2023/07/14 04:07:10;;;;;;;0.63;0.63;;;16.40;99.90;;;;;;4970889;28;20297;-66
2023/07/14 04:09:36;;;;;;;0.73;0.73;;;16.50;99.90;;;;;;4970924;28;20220;-66
2023/07/14 04:12:16;;;;;;;0.32;0.32;;;16.60;99.90;;;;;;4972825;28;20188;-65
2023/07/14 04:14:54;;;;;;;0.30;0.30;;;16.60;99.90;;;;;;4960319;28;20200;-69
2023/07/14 04:17:29;;;;;;;0.40;0.40;;;16.70;99.90;;;;;;4972855;28;20228;-70
2023/07/14 04:23:57;;;;;;;;;;;;;;;;;;;;;
2023/07/14 04:26:57;;;;;;;0.30;0.30;;;16.90;99.90;;;;;;4936481;28;20622;-67
2023/07/14 04:29:48;;;;;;;0.20;0.20;;;17.10;99.90;;;;;;4995836;28;20215;-66
2023/07/14 04:32:22;;;;;;;0.65;0.65;;;17.20;99.90;;;;;;4977581;28;20212;-65
2023/07/14 04:35:16;;;;;;;4.82;0.57;;;17.20;99.90;;;;;;4979627;28;20314;-65
2023/07/14 04:38:38;;;;;;;0.47;0.47;;;17.10;99.90;;;;;;4997424;28;20260;-65
2023/07/14 04:41:38;;;;;;;;;;;;;;;;;;;;;
2023/07/14 04:44:48;;;;;;;0.30;0.30;;;17.20;99.90;;;;;;4994032;28;20648;-65
2023/07/14 04:47:50;;;;;;;0.75;0.68;;;17.50;99.90;;;;;;4941404;29;20294;-65
2023/07/14 04:50:50;;;;;;;0.30;0.30;;;17.60;99.90;;;;;;4998129;28;20207;-68
2023/07/14 04:53:33;;;;;;;1.52;0.52;;;17.60;99.90;;;;;;4991072;28;20245;-68
2023/07/14 04:56:30;;;;;;;2.15;0.95;;;17.30;99.90;;;;;;4993380;28;20199;-65
2023/07/14 04:59:17;;;;;;;0.20;0.20;;;17.10;99.90;;;;;;4994841;28;20215;-65
2023/07/14 05:01:51;;;;;;;0.60;0.60;;;17.20;99.90;;;;;;4996494;28;20273;-65
2023/07/14 05:04:24;;;;;;;0.30;0.30;;;17.20;99.90;;;;;;4995019;28;20285;-66
2023/07/14 05:06:55;;;;;;;0.35;0.35;;;17.40;99.90;;;;;;5013681;28;20426;-65
2023/07/14 05:09:28;;;;;;;0.30;0.30;;;17.40;99.90;;;;;;5015576;28;20598;-66
2023/07/14 05:12:07;;;;;;;1.23;0.43;;;17.60;99.90;;;;;;4998401;28;20701;-66
2023/07/14 05:14:35;;;;;;;1.58;0.65;;;17.80;99.90;;;;;;4998111;28;20763;-67
2023/07/14 05:17:05;;;;;;;0.40;0.40;;;17.90;99.90;;;;;;4998491;28;20221;-65
2023/07/14 05:19:39;;;;;;;0.63;0.40;;;18.00;99.90;;;;;;5016048;28;20483;-68
2023/07/14 05:22:15;;;;;;;0.85;0.65;;;18.00;99.90;;;;;;5015484;28;20218;-69
2023/07/14 05:24:45;;;;;;;0.30;0.30;;;18.10;99.90;;;;;;4998128;28;20197;-70
2023/07/14 05:27:14;;;;;;;0.30;0.30;;;18.00;99.90;;;;;;5015676;28;20688;-69
2023/07/14 05:29:46;;;;;;;0.60;0.60;;;17.90;99.90;;;;;;5015419;28;20195;-69
2023/07/14 05:32:27;;;;;;;0.40;0.40;;;18.00;99.90;;;;;;5015341;28;20225;-70
2023/07/14 05:34:57;;;;;;;0.40;0.40;;;18.20;99.90;;;;;;5014674;28;20202;-69
2023/07/14 05:38:01;;;;;;;0.55;0.55;;;18.30;99.90;;;;;;5001963;28;20248;-70
2023/07/14 05:40:45;;;;;;;0.93;0.50;;;18.10;99.90;;;;;;4918123;29;20216;-70
2023/07/14 05:43:25;;;;;;;0.40;0.40;;;18.10;99.90;;;;;;4918610;29;20249;-70
2023/07/14 05:46:03;;;;;;;0.50;0.50;;;18.20;99.90;;;;;;4992640;28;20643;-69
2023/07/14 05:48:42;;;;;;;0.52;0.52;;;18.30;99.90;;;;;;4996427;28;20585;-70
2023/07/14 05:51:52;;;;;;;0.57;0.57;;;18.50;99.90;;;;;;4997669;28;20203;-70
2023/07/14 05:54:23;;;;;;;0.20;0.20;;;18.60;99.90;;;;;;4993578;28;20674;-70
2023/07/14 05:57:12;;;;;;;1.75;0.75;;;18.50;99.90;;;;;;4997309;28;20199;-70
2023/07/14 06:00:22;;;;;;;0.70;0.63;;;18.70;99.90;;;;;;4984619;28;20211;-70
2023/07/14 06:02:51;;;;;;;0.30;0.30;;;18.70;99.90;;;;;;4955117;28;20214;-70
2023/07/14 06:05:27;;;;;;;0.25;0.25;;;18.70;99.90;;;;;;4994756;28;20231;-70
2023/07/14 06:08:15;;;;;;;0.52;0.52;;;18.80;99.90;;;;;;4994755;28;20215;-70
2023/07/14 06:11:04;;;;;;;0.20;0.20;;;18.90;99.90;;;;;;4994194;28;20204;-70
2023/07/14 06:13:48;;;;;;;0.32;0.32;;;19.00;99.90;;;;;;4993872;28;20210;-70
2023/07/14 06:16:14;;;;;;;0.30;0.30;;;18.90;99.90;;;;;;4993710;28;20703;-69
2023/07/14 06:19:07;;;;;;;0.40;0.35;;;18.70;99.90;;;;;;4994641;28;20537;-70
2023/07/14 06:21:33;;;;;;;1.00;0.95;;;18.60;99.90;;;;;;4994405;28;20509;-70
2023/07/14 06:24:09;;;;;;;0.25;0.25;;;18.90;99.90;;;;;;4993112;28;20270;-70
2023/07/14 06:27:06;;;;;;;0.28;0.28;;;18.80;99.90;;;;;;5008982;28;20205;-70
2023/07/14 06:30:09;;;;;;;0.30;0.30;;;18.90;99.90;;;;;;5008978;28;20195;-71
2023/07/14 06:32:44;;;;;;;0.55;0.43;;;18.70;99.90;;;;;;4994600;28;20199;-70
2023/07/14 06:35:38;;;;;;;;;;;;;;;;;;;;;
2023/07/14 06:38:29;;;;;;;1.83;0.65;;;19.00;99.90;;;;;;5008916;28;20206;-69
2023/07/14 06:41:29;;;;;;;0.20;0.20;;;19.30;99.90;;;;;;5009113;28;20206;-70
2023/07/14 06:44:12;;;;;;;0.20;0.20;;;19.50;99.90;;;;;;5008735;28;20234;-70
2023/07/14 06:46:42;;;;;;;0.20;0.20;;;19.60;99.90;;;;;;5013306;28;20882;-69
2023/07/14 06:49:09;;;;;;;0.20;0.20;;;19.80;99.90;;;;;;5012561;28;20289;-70
2023/07/14 06:51:52;;;;;;;0.45;0.45;;;19.90;99.90;;;;;;5012332;28;20542;-71
2023/07/14 06:54:39;;;;;;;0.47;0.40;;;20.00;99.90;;;;;;5011826;28;20211;-70
2023/07/14 06:57:35;;;;;;;0.30;0.30;;;19.90;99.90;;;;;;5013368;28;20214;-71
2023/07/14 07:00:25;;;;;;;0.20;0.20;;;20.10;99.90;;;;;;5013267;28;20276;-70
2023/07/14 07:03:16;;;;;;;0.30;0.30;;;20.20;99.90;;;;;;5012108;28;20678;-69
2023/07/14 07:06:07;;;;;;;0.20;0.20;;;20.20;99.90;;;;;;5026980;28;20222;-70
2023/07/14 07:08:54;;;;;;;0.20;0.20;;;20.20;99.90;;;;;;4993949;28;20199;-70
2023/07/14 07:11:20;;;;;;;0.30;0.30;;;20.30;99.90;;;;;;5010652;28;20681;-70
2023/07/14 07:13:53;;;;;;;0.30;0.30;;;20.30;99.90;;;;;;5010727;28;20199;-71
2023/07/14 07:16:30;;;;;;;0.20;0.20;;;20.20;99.90;;;;;;4992830;28;20215;-70
2023/07/14 07:19:09;;;;;;;0.28;0.28;;;20.40;99.90;;;;;;4992554;28;20195;-71
2023/07/14 07:21:34;;;;;;;0.40;0.40;;;20.50;99.90;;;;;;4993434;28;20206;-70
2023/07/14 07:24:09;;;;;;;0.20;0.20;;;20.70;99.90;;;;;;4993894;28;20212;-70
2023/07/14 07:26:51;;;;;;;0.20;0.20;;;20.70;99.90;;;;;;5008361;28;20206;-70
2023/07/14 07:29:54;;;;;;;;;;;;;;;;;;;;;
2023/07/14 07:33:05;;;;;;;3.05;0.57;;;21.20;99.90;;;;;;4974063;28;20199;-70
2023/07/14 07:35:30;;;;;;;0.20;0.20;;;21.50;99.90;;;;;;4973547;28;20332;-70
2023/07/14 07:38:20;;;;;;;0.32;0.32;;;21.70;99.90;;;;;;4978506;28;20237;-70
2023/07/14 07:40:47;;;;;;;0.20;0.20;;;21.60;99.90;;;;;;4992316;28;20573;-71
2023/07/14 07:44:24;;;;;;;0.60;0.60;;;21.50;99.90;;;;;;5003620;28;20262;-68
2023/07/14 07:51:09;;;;;;;;;;;;;;;;;;;;;
2023/07/14 07:54:22;;;;;;;0.20;0.20;;;21.40;99.90;;;;;;4924377;29;20214;-71
2023/07/14 08:04:04;;;;;;;2.20;0.43;;;22.20;99.90;;;;;;4974827;28;20219;-71
2023/07/14 08:07:23;;;;;;;0.10;0.10;;;22.20;99.90;;;;;;4976704;28;20219;-70
2023/07/14 08:10:24;;;;;;;0.15;0.15;;;22.20;99.90;;;;;;4954229;29;20360;-66
2023/07/14 08:13:10;;;;;;;7.00;0.57;;;22.10;99.90;;;;;;4951736;28;20209;-68
2023/07/14 08:16:23;;;;;;;;;;;;;;;;;;;;;
2023/07/14 08:18:53;;;;;;;0.20;0.20;;;22.20;99.90;;;;;;4990612;28;20257;-66
2023/07/14 08:21:37;;;;;;;;;;;;;;;;;;;;;
2023/07/14 08:24:32;;;;;;;0.20;0.20;;;22.40;99.90;;;;;;4991074;28;20278;-66
2023/07/14 08:34:32;;;;;;;0.20;0.20;;;22.80;99.90;;;;;;4950532;28;20259;-69
2023/07/14 08:41:21;;;;;;;0.10;0.10;;;22.50;99.90;;;;;;4959223;28;20204;-68
2023/07/14 08:48:33;;;;;;;;;;;;;;;;;;;;;
2023/07/14 08:51:20;;;;;;;0.20;0.20;;;23.50;99.90;;;;;;4961370;28;20270;-68
2023/07/14 08:54:39;;;;;;;;;;;;;;;;;;;;;
2023/07/14 08:57:58;;;;;;;0.30;0.30;;;23.60;99.90;;;;;;4980324;28;20247;-71
2023/07/14 09:05:21;;;;;;;;;;;;;;;;;;;;;
2023/07/14 09:11:54;;;;;;;0.10;0.10;;;24.40;99.90;;;;;;4909058;29;20208;-69
2023/07/14 09:17:52;;;;;;;0.10;0.10;;;24.20;99.90;;;;;;4980632;28;20204;-69
2023/07/14 09:21:08;;;;;;;11.38;0.47;;;24.60;99.90;;;;;;4982550;28;20212;-67
2023/07/14 09:24:54;;;;;;;0.20;0.20;;;24.70;99.90;;;;;;5007283;28;20233;-66
2023/07/14 09:27:52;;;;;;;0.40;0.40;;;24.60;99.90;;;;;;4978172;28;20199;-66
2023/07/14 09:31:16;;;;;;;0.35;0.35;;;24.60;99.90;;;;;;5000033;28;20230;-68
2023/07/14 09:38:25;;;;;;;;;;;;;;;;;;;;;
2023/07/14 09:41:50;;;;;;;;;;;;;;;;;;;;;
2023/07/14 09:44:50;;;;;;;;;;;;;;;;;;;;;
2023/07/14 09:47:40;;;;;;;0.10;0.10;;;25.30;99.90;;;;;;4942613;29;20367;-68
2023/07/14 09:54:18;;;;;;;0.20;0.20;;;25.40;99.90;;;;;;4893930;29;20215;-69
2023/07/14 10:00:28;;;;;;;0.10;0.10;;;25.10;99.90;;;;;;4811236;29;20215;-67
2023/07/14 10:07:08;;;;;;;;;;;;;;;;;;;;;
2023/07/14 10:13:51;;;;;;;;;;;;;;;;;;;;;
2023/07/14 10:17:03;;;;;;;0.20;0.20;;;25.90;99.90;;;;;;4811415;29;20286;-71
2023/07/14 10:20:47;;;;;;;;;;;;;;;;;;;;;
2023/07/14 10:23:32;;;;;;;0.10;0.10;;;25.00;99.90;;;;;;4842987;29;20224;-69
2023/07/14 10:26:14;;;;;;;0.20;0.20;;;24.20;99.90;;;;;;4918065;29;20202;-69
2023/07/14 10:29:33;;;;;;;;;;;;;;;;;;;;;
2023/07/14 10:35:50;;;;;;;0.45;0.30;;;25.70;99.90;;;;;;4897449;29;20343;-69
2023/07/14 10:38:54;;;;;;;0.20;0.20;;;26.30;99.90;;;;;;4891772;29;20223;-69
2023/07/14 10:45:21;;;;;;;0.20;0.20;;;23.90;99.90;;;;;;4873367;29;20215;-68
2023/07/14 10:48:16;;;;;;;0.20;0.20;;;23.30;99.90;;;;;;4940230;29;20235;-68
2023/07/14 10:51:20;;;;;;;0.10;0.10;;;22.80;99.90;;;;;;4949975;28;20212;-70
2023/07/14 10:54:16;;;;;;;0.28;0.28;;;22.50;99.90;;;;;;4947673;28;20235;-68
2023/07/14 10:57:29;;;;;;;0.20;0.20;;;22.40;99.90;;;;;;4972928;28;20232;-70
2023/07/14 11:01:21;;;;;;;0.10;0.10;;;23.20;99.90;;;;;;4957788;28;20196;-68
2023/07/14 11:04:14;;;;;;;0.10;0.10;;;24.60;99.90;;;;;;4927998;29;20366;-68
2023/07/14 11:06:45;;;;;;;0.10;0.10;;;26.10;99.90;;;;;;4933813;29;20233;-69
2023/07/14 11:09:24;;;;;;;0.20;0.20;;;25.80;99.90;;;;;;4936404;29;20576;-69
2023/07/14 11:15:46;;;;;;;0.10;0.10;;;24.50;99.90;;;;;;4897444;29;20720;-68
2023/07/14 11:22:02;;;;;;;0.32;0.20;;;23.80;99.90;;;;;;4928680;29;20239;-69
2023/07/14 11:25:16;;;;;;;;;;;;;;;;;;;;;
2023/07/14 11:28:20;;;;;;;0.10;0.10;;;23.40;99.90;;;;;;4936196;29;20280;-68
2023/07/14 11:31:06;;;;;;;0.10;0.10;;;23.50;99.90;;;;;;4934456;29;20227;-68
2023/07/14 11:37:03;;;;;;;0.10;0.10;;;24.40;99.90;;;;;;4944150;29;20256;-66
2023/07/14 11:46:15;;;;;;;0.10;0.10;;;23.90;99.90;;;;;;4947582;29;20216;-68
2023/07/14 11:49:26;;;;;;;0.10;0.10;;;23.80;99.90;;;;;;4908326;29;20218;-67
2023/07/14 11:52:31;;;;;;;;;;;;;;;;;;;;;
2023/07/14 11:55:49;;;;;;;0.20;0.20;;;23.20;99.90;;;;;;4976685;28;20274;-70
2023/07/14 11:58:39;;;;;;;0.10;0.10;;;23.20;99.90;;;;;;4956849;28;20271;-70
2023/07/14 12:01:24;;;;;;;0.10;0.10;;;24.10;99.90;;;;;;4927803;29;20364;-69
2023/07/14 12:04:37;;;;;;;0.20;0.20;;;25.60;99.90;;;;;;4953821;29;20216;-70
2023/07/14 12:07:52;;;;;;;0.10;0.10;;;26.50;99.90;;;;;;4964145;28;20255;-71
2023/07/14 12:11:10;;;;;;;;;;;;;;;;;;;;;
2023/07/14 12:13:40;;;;;;;0.45;0.22;;;28.10;99.90;;;;;;4947288;29;20830;-71
2023/07/14 12:16:35;;;;;;;0.10;0.10;;;28.50;98.30;;;;;;4934874;29;20668;-70
2023/07/14 12:19:25;;;;;;;0.10;0.10;;;28.50;97.50;;;;;;4951126;28;20247;-70
2023/07/14 12:22:09;;;;;;;0.10;0.10;;;27.70;95.10;;;;;;4934706;29;20251;-71
2023/07/14 12:25:02;;;;;;;0.40;0.40;;;26.00;97.80;;;;;;4934490;29;20693;-71
2023/07/14 12:27:44;;;;;;;0.10;0.10;;;25.70;98.90;;;;;;4941806;29;20716;-69
2023/07/14 12:30:46;;;;;;;;;;;;;;;;;;;;;
2023/07/14 12:44:05;;;;;;;;;;;;;;;;;;;;;
2023/07/14 12:50:54;;;;;;;0.17;0.17;;;26.80;98.30;;;;;;4973384;28;20693;-68
2023/07/14 12:53:48;;;;;;;0.10;0.10;;;27.40;96.80;;;;;;4914873;29;20209;-69
2023/07/14 12:56:30;;;;;;;0.10;0.10;;;27.40;98.00;;;;;;4960663;28;20237;-71
2023/07/14 12:59:07;;;;;;;0.10;0.10;;;27.00;94.90;;;;;;4975348;28;20211;-71
2023/07/14 13:08:50;;;;;;;0.10;0.10;;;25.40;96.10;;;;;;4970752;28;20294;-67
2023/07/14 13:15:18;;;;;;;0.10;0.10;;;24.30;99.90;;;;;;4993337;28;20230;-69
2023/07/14 13:19:07;;;;;;;0.10;0.10;;;25.40;99.90;;;;;;4964922;28;20208;-71
2023/07/14 13:25:22;;;;;;;0.10;0.10;;;26.80;97.60;;;;;;4882244;29;20219;-70
2023/07/14 13:28:30;;;;;;;0.10;0.10;;;26.90;96.40;;;;;;4865092;29;20203;-71
2023/07/14 13:31:31;;;;;;;;;;;;;;;;;;;;;
2023/07/14 13:33:57;;;;;;;0.17;0.17;;;25.40;96.90;;;;;;4861130;29;20200;-70
2023/07/14 13:36:39;;;;;;;0.10;0.10;;;25.20;97.50;;;;;;4861108;29;20270;-69
2023/07/14 13:39:40;;;;;;;0.10;0.10;;;25.50;98.70;;;;;;4863470;29;20452;-70
2023/07/14 13:42:48;;;;;;;0.10;0.10;;;25.40;98.80;;;;;;4842141;29;20216;-69
2023/07/14 13:45:44;;;;;;;0.10;0.10;;;25.00;99.30;;;;;;4827079;29;20217;-70
2023/07/14 13:48:52;;;;;;;0.10;0.10;;;25.30;99.90;;;;;;4825113;29;20213;-70
2023/07/14 13:54:17;;;;;;;0.32;0.30;;;24.90;99.90;;;;;;4841566;29;20252;-70
2023/07/14 13:56:54;;;;;;;0.20;0.20;;;24.90;99.90;;;;;;4842284;29;20209;-69
2023/07/14 13:59:42;;;;;;;0.20;0.20;;;25.50;99.90;;;;;;4829958;29;20292;-70
2023/07/14 14:02:32;;;;;;;0.10;0.10;;;26.20;97.90;;;;;;4961615;28;20204;-68
2023/07/14 14:05:50;;;;;;;0.20;0.20;;;26.50;96.70;;;;;;4968608;28;20239;-69
2023/07/14 14:08:52;;;;;;;0.10;0.10;;;26.90;94.70;;;;;;5017992;28;20226;-70
2023/07/14 14:11:55;;;;;;;0.10;0.10;;;27.50;96.20;;;;;;4979141;28;20212;-69
2023/07/14 14:15:22;;;;;;;;;;;;;;;;;;;;;
2023/07/14 14:21:36;;;;;;;0.10;0.10;;;27.90;94.70;;;;;;4950882;28;20199;-68
2023/07/14 14:24:25;;;;;;;0.10;0.10;;;28.20;93.60;;;;;;4959659;28;20247;-66
2023/07/14 14:26:54;;;;;;;0.10;0.10;;;28.20;93.40;;;;;;4958723;28;20294;-68
2023/07/14 14:32:37;;;;;;;0.10;0.10;;;28.30;93.50;;;;;;4964624;28;20247;-68
2023/07/14 14:36:02;;;;;;;0.30;0.22;;;27.70;93.00;;;;;;4975915;28;20199;-68
2023/07/14 14:39:27;;;;;;;0.30;0.30;;;27.70;92.80;;;;;;4887603;29;20218;-68
2023/07/14 14:42:24;;;;;;;0.17;0.17;;;27.20;91.80;;;;;;4909265;28;20208;-68
2023/07/14 14:45:37;;;;;;;;;;;;;;;;;;;;;
2023/07/14 14:48:30;;;;;;;0.20;0.20;;;27.70;93.30;;;;;;4973053;28;20747;-70
2023/07/14 14:51:29;;;;;;;0.10;0.10;;;27.70;92.60;;;;;;4957254;28;20235;-69
2023/07/14 14:53:58;;;;;;;0.10;0.10;;;27.20;92.90;;;;;;4911083;29;20213;-68
2023/07/14 14:57:11;;;;;;;0.10;0.10;;;26.30;92.00;;;;;;4988251;28;20546;-75
2023/07/14 15:06:08;;;;;;;0.20;0.20;;;25.10;94.80;;;;;;4973840;28;20214;-73
2023/07/14 15:15:54;;;;;;;0.10;0.10;;;26.00;93.20;;;;;;4914719;29;20214;-73
2023/07/14 15:22:42;;;;;;;0.20;0.20;;;25.40;92.90;;;;;;4788577;29;20249;-73
2023/07/14 15:28:44;;;;;;;0.10;0.10;;;25.00;93.30;;;;;;4821876;29;20476;-73
2023/07/14 15:31:43;;;;;;;;;;;;;;;;;;;;;
2023/07/14 15:38:43;;;;;;;0.20;0.20;;;25.10;94.60;;;;;;4808803;29;20207;-74
2023/07/14 15:44:59;;;;;;;0.47;0.40;;;25.10;95.70;;;;;;4822526;29;20221;-73
2023/07/14 15:48:10;;;;;;;0.45;0.43;;;25.40;95.50;;;;;;4805607;29;20214;-74
2023/07/14 15:50:53;;;;;;;1.05;0.30;;;25.30;95.20;;;;;;4809837;29;20258;-73
2023/07/14 16:00:45;;;;;;;0.20;0.20;;;24.30;94.60;;;;;;4868496;29;20238;-73
2023/07/14 16:06:59;;;;;;;0.13;0.13;;;23.60;96.00;;;;;;4933217;29;20229;-72
2023/07/14 16:23:35;;;;;;;0.10;0.10;;;23.70;97.10;;;;;;4909208;29;20262;-74
2023/07/14 16:30:20;;;;;;;1.95;1.08;;;23.10;94.70;;;;;;4926769;28;20214;-73
2023/07/14 16:33:46;;;;;;;0.20;0.20;;;22.50;96.90;;;;;;4989825;28;20211;-73
2023/07/14 16:36:36;;;;;;;0.28;0.28;;;22.30;96.50;;;;;;4932002;29;20197;-74
2023/07/14 16:43:18;;;;;;;0.43;0.43;;;21.70;98.20;;;;;;4955146;28;20368;-73
2023/07/14 16:46:38;;;;;;;0.20;0.20;;;21.60;97.90;;;;;;4915315;29;20204;-72
2023/07/14 16:49:14;;;;;;;0.20;0.20;;;21.40;98.00;;;;;;4951297;29;20694;-72
2023/07/14 16:52:05;;;;;;;0.30;0.30;;;21.30;99.90;;;;;;4936162;29;20601;-72
2023/07/14 16:55:51;;;;;;;0.30;0.30;;;21.20;99.90;;;;;;4935096;29;20253;-71
2023/07/14 16:58:43;;;;;;;0.65;0.50;;;21.10;99.90;;;;;;4848539;29;20216;-72
2023/07/14 17:05:34;;;;;;;0.20;0.20;;;20.70;99.60;;;;;;4783741;30;20240;-72
2023/07/14 17:08:52;;;;;;;0.20;0.20;;;20.60;99.40;;;;;;4749523;30;20224;-73
2023/07/14 17:11:23;;;;;;;0.20;0.20;;;20.50;99.90;;;;;;4716729;30;20586;-73
2023/07/14 17:13:58;;;;;;;0.20;0.20;;;20.50;99.90;;;;;;4716433;30;20214;-73
2023/07/14 17:16:41;;;;;;;12.05;1.70;;;20.50;99.90;;;;;;4716882;30;20224;-73
2023/07/14 17:29:00;;;;;;;1.10;0.75;;;20.00;99.90;;;;;;4792365;29;20214;-74
2023/07/14 17:39:37;;;;;;;0.20;0.20;;;19.60;99.90;;;;;;4786984;29;20369;-72
2023/07/14 17:42:45;;;;;;;0.20;0.20;;;19.50;99.90;;;;;;4817632;29;20232;-72
2023/07/14 17:45:45;;;;;;;0.20;0.20;;;19.20;99.90;;;;;;4917087;29;20245;-74
2023/07/14 17:48:51;;;;;;;0.38;0.38;;;19.10;99.90;;;;;;4916844;29;20300;-72
2023/07/14 17:51:55;;;;;;;0.20;0.20;;;19.10;99.90;;;;;;4893638;29;20583;-72
2023/07/14 17:54:59;;;;;;;0.20;0.20;;;19.00;99.90;;;;;;4922681;29;20205;-72
2023/07/14 17:57:38;;;;;;;0.30;0.30;;;18.90;99.90;;;;;;4994030;28;20215;-72
2023/07/14 18:03:03;;;;;;;0.20;0.20;;;18.50;99.90;;;;;;5001415;28;20712;-73
2023/07/14 18:05:29;;;;;;;0.38;0.38;;;18.30;99.90;;;;;;4995243;28;20253;-72
2023/07/14 18:08:11;;;;;;;0.20;0.20;;;18.30;99.90;;;;;;4987385;28;20216;-72
2023/07/14 18:13:49;;;;;;;0.20;0.20;;;18.40;99.90;;;;;;4915953;29;20207;-73
2023/07/14 18:16:50;;;;;;;0.30;0.30;;;18.40;99.90;;;;;;4900041;29;20202;-72
2023/07/14 18:19:50;;;;;;;0.45;0.40;;;18.20;99.90;;;;;;4882617;29;20229;-73
2023/07/14 18:22:33;;;;;;;0.20;0.20;;;18.20;99.90;;;;;;4891289;29;20278;-73
2023/07/14 18:25:21;;;;;;;0.32;0.32;;;18.10;99.90;;;;;;4934422;29;20472;-73
2023/07/14 18:28:16;;;;;;;0.28;0.28;;;17.90;99.90;;;;;;4899008;29;20293;-73
2023/07/14 18:33:37;;;;;;;0.30;0.30;;;17.40;99.90;;;;;;4914132;29;20256;-73
2023/07/14 18:36:29;;;;;;;0.40;0.40;;;17.20;99.90;;;;;;4918610;29;20225;-73
2023/07/14 18:39:11;;;;;;;0.30;0.30;;;17.00;99.90;;;;;;4937063;29;20327;-72
2023/07/14 18:41:51;;;;;;;;;;;;;;;;;;;;;
2023/07/14 18:44:18;;;;;;;0.52;0.47;;;16.60;99.90;;;;;;4953081;29;20216;-73
2023/07/14 18:46:45;;;;;;;0.20;0.20;;;16.50;99.90;;;;;;4904173;29;20221;-74
2023/07/14 18:50:39;;;;;;;;;;;;;;;;;;;;;
2023/07/14 18:53:55;;;;;;;0.22;0.22;;;16.30;99.90;;;;;;4840797;29;20212;-73
2023/07/14 18:59:37;;;;;;;0.20;0.20;;;16.30;99.90;;;;;;4840104;29;20653;-72
2023/07/14 19:02:37;;;;;;;0.30;0.30;;;16.20;99.90;;;;;;4822331;29;20217;-72
2023/07/14 19:08:14;;;;;;;0.30;0.30;;;15.90;99.90;;;;;;4852706;29;20216;-73
2023/07/14 19:11:43;;;;;;;;;;;;;;;;;;;;;
2023/07/14 19:18:03;;;;;;;0.30;0.30;;;15.60;99.90;;;;;;4852494;29;20214;-73
2023/07/14 19:20:34;;;;;;;0.40;0.40;;;15.40;99.90;;;;;;4858171;29;20200;-74
2023/07/14 19:23:00;;;;;;;0.40;0.40;;;15.20;99.90;;;;;;4842364;29;20252;-74
2023/07/14 19:25:36;;;;;;;25.55;0.77;;;15.10;99.90;;;;;;4842288;29;20235;-74
2023/07/14 19:28:23;;;;;;;0.30;0.30;;;15.00;99.90;;;;;;4843428;29;20208;-74
2023/07/14 19:34:22;;;;;;;0.45;0.45;;;14.80;99.90;;;;;;4858171;29;20223;-72
2023/07/14 19:36:49;;;;;;;0.35;0.35;;;14.70;99.90;;;;;;4922628;28;20338;-72